Terminal Aerodrome Forecast
Issued by NWS

Home | Current Version | Previous Version | Text Only | Print | Product List | Glossary On
Versions: 1 2 3 4 5 6 7 8 9 10 11 12 13 14 15 16 17 18 19
000
FTUS44 KLZK 201120
TAFHRO
TAF
KHRO 201120Z 2012/2112 VRB04KT P6SM VCFG FEW050 SCT250
     FM201500 17007KT P6SM SCT050 SCT250
     FM210000 VRB05KT P6SM SCT250=

USA.gov is the U.S. government's official web portal to all federal, state and local government web resources and services.